createdAt,value
2018-12-11T00:02:05.511Z,7.87
2018-12-11T00:04:33.722Z,10.60
2018-12-11T00:07:02.068Z,11.93
2018-12-11T00:09:30.331Z,7.30
2018-12-11T00:11:59.116Z,10.27
2018-12-11T00:14:27.613Z,11.17
2018-12-11T00:16:55.928Z,9.50
2018-12-11T00:19:24.102Z,8.77
2018-12-11T00:21:52.360Z,8.77
2018-12-11T00:24:21.426Z,9.90
2018-12-11T00:26:51.036Z,11.53
2018-12-11T00:29:19.755Z,13.17
2018-12-11T00:31:48.133Z,11.50
2018-12-11T00:34:17.348Z,8.20
2018-12-11T00:36:45.568Z,8.57
2018-12-11T00:39:14.146Z,6.93
2018-12-11T00:41:42.890Z,8.70
2018-12-11T00:44:11.324Z,8.67
2018-12-11T00:49:15.789Z,8.97
2018-12-11T00:51:44.334Z,9.50
2018-12-11T00:54:12.741Z,8.10
2018-12-11T00:56:41.117Z,7.53
2018-12-11T00:59:09.577Z,6.73
2018-12-11T01:01:38.424Z,8.27
2018-12-11T01:04:07.727Z,8.97
2018-12-11T01:06:35.880Z,8.53
2018-12-11T01:09:06.618Z,10.07
2018-12-11T01:11:35.699Z,9.00
2018-12-11T01:14:04.065Z,7.43
2018-12-11T01:16:33.761Z,4.93
2018-12-11T01:19:02.828Z,7.87
2018-12-11T01:21:31.021Z,10.90
2018-12-11T01:24:00.285Z,9.10
2018-12-11T01:26:28.463Z,9.40
2018-12-11T01:28:56.749Z,9.90
2018-12-11T01:31:24.918Z,11.23
2018-12-11T01:33:53.594Z,8.40
2018-12-11T01:36:24.000Z,8.37
2018-12-11T01:38:54.820Z,5.60
2018-12-11T01:41:23.094Z,7.83
2018-12-11T01:43:51.364Z,11.37
2018-12-11T01:46:20.108Z,10.40
2018-12-11T01:48:48.414Z,13.03
2018-12-11T01:51:16.810Z,7.70
2018-12-11T01:53:45.929Z,9.03
2018-12-11T01:56:14.676Z,11.37
2018-12-11T01:58:42.940Z,9.27
2018-12-11T02:01:11.134Z,8.97
2018-12-11T02:03:39.289Z,9.57
2018-12-11T02:06:07.624Z,11.13
2018-12-11T02:08:35.909Z,12.17
2018-12-11T02:11:04.249Z,11.60
2018-12-11T02:13:32.475Z,9.33
2018-12-11T02:16:00.695Z,9.80
2018-12-11T02:18:28.894Z,10.13
2018-12-11T02:20:57.110Z,17.37
2018-12-11T02:23:25.424Z,15.43
2018-12-11T02:25:53.613Z,12.13
2018-12-11T02:28:21.804Z,8.07
2018-12-11T02:30:50.053Z,11.17
2018-12-11T02:33:18.703Z,9.90
2018-12-11T02:35:46.960Z,10.27
2018-12-11T02:38:15.172Z,13.83
2018-12-11T02:40:43.515Z,13.23
2018-12-11T02:43:11.977Z,14.23
2018-12-11T02:45:41.517Z,13.37
2018-12-11T02:48:09.677Z,14.27
2018-12-11T02:50:37.897Z,16.53
2018-12-11T02:53:06.985Z,13.27
2018-12-11T02:55:35.285Z,12.33
2018-12-11T02:58:03.664Z,15.77
2018-12-11T03:00:31.866Z,22.00
2018-12-11T03:03:00.049Z,10.27
2018-12-11T03:05:28.396Z,13.80
2018-12-11T03:07:56.589Z,9.37
2018-12-11T03:10:24.807Z,9.57
2018-12-11T03:12:53.016Z,9.97
2018-12-11T03:15:22.028Z,12.93
2018-12-11T03:17:50.210Z,12.13
2018-12-11T03:20:18.508Z,12.17
2018-12-11T03:22:46.702Z,11.00
2018-12-11T03:25:16.617Z,11.43
2018-12-11T03:27:44.794Z,13.83
2018-12-11T03:30:13.877Z,10.67
2018-12-11T03:32:44.691Z,11.87
2018-12-11T03:35:12.952Z,12.23
2018-12-11T03:37:41.139Z,10.43
2018-12-11T03:40:09.470Z,9.57
2018-12-11T03:42:37.621Z,10.77
2018-12-11T03:45:06.051Z,12.17
2018-12-11T03:47:34.323Z,11.83
2018-12-11T03:50:04.132Z,11.57
2018-12-11T03:52:32.509Z,10.13
2018-12-11T03:55:00.717Z,11.37
2018-12-11T03:57:28.853Z,9.50
2018-12-11T03:59:57.132Z,16.27
2018-12-11T04:02:25.368Z,16.03
2018-12-11T04:04:54.744Z,11.57
2018-12-11T04:07:23.048Z,12.07
2018-12-11T04:09:51.227Z,11.50
2018-12-11T04:12:19.569Z,12.50
2018-12-11T04:14:48.100Z,13.70
2018-12-11T04:17:19.012Z,9.17
2018-12-11T04:19:48.816Z,8.43
2018-12-11T04:22:17.102Z,6.23
2018-12-11T04:24:46.709Z,8.43
2018-12-11T04:27:15.462Z,7.47
2018-12-11T04:29:43.669Z,12.00
2018-12-11T04:32:12.273Z,13.20
2018-12-11T04:34:40.444Z,9.57
2018-12-11T04:37:08.611Z,9.30
2018-12-11T04:39:36.923Z,11.20
2018-12-11T04:42:05.193Z,10.77
2018-12-11T04:44:33.384Z,12.10
2018-12-11T04:47:01.664Z,11.67
2018-12-11T04:49:29.969Z,12.03
2018-12-11T04:51:58.168Z,11.60
2018-12-11T04:54:26.391Z,16.53
2018-12-11T04:56:55.569Z,16.73
2018-12-11T04:59:23.745Z,12.77
2018-12-11T05:01:52.022Z,13.00
2018-12-11T05:04:20.225Z,14.57
2018-12-11T05:06:48.429Z,19.53
2018-12-11T05:09:16.618Z,11.70
2018-12-11T05:11:44.860Z,15.40
2018-12-11T05:14:13.269Z,14.90
2018-12-11T05:16:42.678Z,16.00
2018-12-11T05:27:55.107Z,14.27
2018-12-11T05:30:36.581Z,11.43
2018-12-11T05:50:20.649Z,11.10
2018-12-11T06:03:22.957Z,10.73
2018-12-11T06:19:53.005Z,9.53
2018-12-11T06:22:21.201Z,10.47
2018-12-11T06:24:49.837Z,13.13
2018-12-11T06:27:17.947Z,8.40
2018-12-11T06:29:46.115Z,9.03
2018-12-11T06:32:19.304Z,9.77
2018-12-11T06:34:49.055Z,13.07
2018-12-11T06:37:21.563Z,10.77
2018-12-11T06:39:49.815Z,12.13
2018-12-11T06:42:18.099Z,10.23
2018-12-11T06:44:46.580Z,10.77
2018-12-11T06:47:15.173Z,10.93
2018-12-11T06:49:43.374Z,8.70
2018-12-11T06:52:11.652Z,9.10
2018-12-11T06:54:39.845Z,11.80
2018-12-11T06:57:08.140Z,8.63
2018-12-11T06:59:36.448Z,7.83
2018-12-11T07:02:04.725Z,9.37
2018-12-11T07:04:33.586Z,10.10
2018-12-11T07:07:01.910Z,7.60
2018-12-11T07:09:30.068Z,9.33
2018-12-11T07:11:58.212Z,8.27
2018-12-11T07:14:26.387Z,13.07
2018-12-11T07:16:54.595Z,9.67
2018-12-11T07:19:22.764Z,6.30
2018-12-11T07:21:50.948Z,9.47
2018-12-11T07:24:19.121Z,8.57
2018-12-11T07:26:47.371Z,10.03
2018-12-11T07:29:15.786Z,11.20
2018-12-11T07:31:43.927Z,12.83
2018-12-11T07:34:12.193Z,10.77
2018-12-11T07:36:40.363Z,9.13
2018-12-11T07:39:08.543Z,8.60
2018-12-11T07:41:38.752Z,8.50
2018-12-11T07:44:06.979Z,12.73
2018-12-11T07:46:35.255Z,9.70
2018-12-11T07:49:03.420Z,11.20
2018-12-11T07:51:31.579Z,8.20
2018-12-11T07:53:59.812Z,9.23
2018-12-11T07:56:27.989Z,8.20
2018-12-11T07:58:56.220Z,9.27
2018-12-11T08:01:25.287Z,10.17
2018-12-11T08:04:02.158Z,9.37
2018-12-11T08:06:30.424Z,11.03
2018-12-11T08:08:58.668Z,10.20
2018-12-11T08:11:26.920Z,10.83
2018-12-11T08:13:55.107Z,7.47
2018-12-11T08:16:24.144Z,10.77
2018-12-11T08:18:53.035Z,9.77
2018-12-11T08:21:21.219Z,11.60
2018-12-11T08:23:52.303Z,9.70
2018-12-11T08:26:20.510Z,11.07
2018-12-11T08:28:50.358Z,10.00
2018-12-11T08:31:18.612Z,8.47
2018-12-11T08:33:47.092Z,9.43
2018-12-11T08:36:15.250Z,9.07
2018-12-11T08:38:43.444Z,12.57
2018-12-11T08:41:11.631Z,9.80
2018-12-11T08:43:39.855Z,8.77
2018-12-11T08:46:12.728Z,10.20
2018-12-11T08:48:41.228Z,10.17
2018-12-11T08:51:10.017Z,9.33
2018-12-11T08:53:38.261Z,8.90
2018-12-11T08:56:07.365Z,9.77
2018-12-11T08:58:35.583Z,6.40
2018-12-11T09:01:03.909Z,9.37
2018-12-11T09:03:32.169Z,8.07
2018-12-11T09:06:00.777Z,8.83
2018-12-11T09:08:28.944Z,7.37
2018-12-11T09:10:57.224Z,5.87
2018-12-11T09:13:26.115Z,8.23
2018-12-11T09:15:54.324Z,8.33
2018-12-11T09:18:22.524Z,8.33
2018-12-11T09:20:50.688Z,6.83
2018-12-11T09:23:20.063Z,5.63
2018-12-11T09:25:48.298Z,7.17
2018-12-11T09:28:16.467Z,7.77
2018-12-11T09:30:44.733Z,7.77
2018-12-11T09:33:12.925Z,5.63
2018-12-11T09:35:41.124Z,4.30
2018-12-11T09:38:09.557Z,6.73
2018-12-11T09:40:37.712Z,6.47
2018-12-11T09:43:06.049Z,4.73
2018-12-11T09:45:34.227Z,5.43
2018-12-11T09:48:02.500Z,8.87
2018-12-11T09:50:30.688Z,7.03
2018-12-11T09:52:58.952Z,7.47
2018-12-11T09:55:27.197Z,5.30
2018-12-11T09:57:55.411Z,4.47
2018-12-11T10:00:27.251Z,7.30
2018-12-11T10:02:54.572Z,5.63
2018-12-11T10:05:23.060Z,5.60
2018-12-11T10:07:51.213Z,3.97
2018-12-11T10:10:19.469Z,3.50
2018-12-11T10:12:47.696Z,5.10
2018-12-11T10:15:15.919Z,3.97
2018-12-11T10:17:44.939Z,5.83
2018-12-11T10:20:15.492Z,5.60
2018-12-11T10:22:45.760Z,5.67
2018-12-11T10:25:16.466Z,5.03
2018-12-11T10:27:44.658Z,7.57
2018-12-11T10:30:12.866Z,5.37
2018-12-11T10:32:43.039Z,5.77
2018-12-11T10:35:11.247Z,6.47
2018-12-11T10:37:39.532Z,11.97
2018-12-11T10:40:07.700Z,6.23
2018-12-11T10:42:35.861Z,7.80
2018-12-11T10:45:05.361Z,8.53
2018-12-11T10:47:34.259Z,7.97
2018-12-11T10:50:02.503Z,6.93
2018-12-11T10:52:30.715Z,6.23
2018-12-11T10:54:59.040Z,11.70
2018-12-11T10:57:27.228Z,11.57
2018-12-11T10:59:55.436Z,7.20
2018-12-11T11:02:27.601Z,11.60
2018-12-11T11:04:55.790Z,9.00
2018-12-11T11:07:24.059Z,8.93
2018-12-11T11:09:52.232Z,11.33
2018-12-11T11:12:21.643Z,4.70
2018-12-11T11:14:50.003Z,5.90
2018-12-11T11:17:18.213Z,6.60
2018-12-11T11:19:46.396Z,6.93
2018-12-11T11:22:14.630Z,6.23
2018-12-11T11:24:42.774Z,6.30
2018-12-11T11:27:11.072Z,7.03
2018-12-11T11:29:39.378Z,6.13
2018-12-11T11:32:09.224Z,9.57
2018-12-11T11:34:40.967Z,3.73
2018-12-11T11:37:09.181Z,7.80
2018-12-11T11:39:37.385Z,10.63
2018-12-11T11:42:05.667Z,3.87
2018-12-11T11:44:34.082Z,9.17
2018-12-11T11:47:02.291Z,5.10
2018-12-11T11:49:30.474Z,5.73
2018-12-11T11:51:58.660Z,4.67
2018-12-11T11:54:27.831Z,3.27
2018-12-11T11:56:56.054Z,6.13
2018-12-11T11:59:24.762Z,4.67
2018-12-11T12:01:53.065Z,4.87
2018-12-11T12:04:21.361Z,7.70
2018-12-11T12:06:49.630Z,4.70
2018-12-11T12:09:17.800Z,5.27
2018-12-11T12:11:45.984Z,3.00
2018-12-11T12:14:14.188Z,2.77
2018-12-11T12:16:42.404Z,3.20
2018-12-11T12:19:10.646Z,4.73
2018-12-11T12:21:38.831Z,5.67
2018-12-11T12:24:07.044Z,3.43
2018-12-11T12:26:37.196Z,8.10
2018-12-11T12:29:05.650Z,8.37
2018-12-11T12:34:12.556Z,6.13
2018-12-11T12:36:40.744Z,9.53
2018-12-11T12:39:09.454Z,7.30
2018-12-11T12:41:38.170Z,4.10
2018-12-11T12:44:06.444Z,6.93
2018-12-11T12:46:34.951Z,7.13
2018-12-11T12:49:03.483Z,5.67
2018-12-11T12:51:31.820Z,3.83
2018-12-11T12:54:00.029Z,7.90
2018-12-11T12:56:28.228Z,6.80
2018-12-11T12:58:56.449Z,5.93
2018-12-11T13:01:24.723Z,5.17
2018-12-11T13:03:52.907Z,6.00
2018-12-11T13:06:22.370Z,6.90
2018-12-11T13:08:50.558Z,8.13
2018-12-11T13:11:18.795Z,5.37
2018-12-11T13:13:48.018Z,7.30
2018-12-11T13:16:16.214Z,5.60
2018-12-11T13:18:44.416Z,7.80
2018-12-11T13:21:13.411Z,5.63
2018-12-11T13:23:41.656Z,5.87
2018-12-11T13:26:10.596Z,15.57
2018-12-11T13:28:39.241Z,7.70
2018-12-11T13:31:07.686Z,6.30
2018-12-11T13:33:36.190Z,6.00
2018-12-11T13:36:04.774Z,6.77
2018-12-11T13:38:33.330Z,6.33
2018-12-11T13:41:02.327Z,6.93
2018-12-11T13:43:30.725Z,5.70
2018-12-11T13:45:59.313Z,5.30
2018-12-11T13:48:44.759Z,4.60
2018-12-11T13:51:13.812Z,8.40
2018-12-11T13:53:42.395Z,6.50
2018-12-11T13:56:10.644Z,7.00
2018-12-11T13:58:38.827Z,7.53
2018-12-11T14:01:07.068Z,9.50
2018-12-11T14:03:35.260Z,5.97
2018-12-11T14:06:10.188Z,7.60
2018-12-11T14:08:38.410Z,5.07
2018-12-11T14:11:06.580Z,10.37
2018-12-11T14:13:34.781Z,8.80
2018-12-11T14:16:03.084Z,9.60
2018-12-11T14:18:31.557Z,9.10
2018-12-11T14:21:00.109Z,9.13
2018-12-11T14:23:28.279Z,6.77
2018-12-11T14:25:56.440Z,12.27
2018-12-11T14:28:25.680Z,10.43
2018-12-11T14:30:54.085Z,4.93
2018-12-11T14:33:22.252Z,6.73
2018-12-11T14:35:50.485Z,7.57
2018-12-11T14:38:18.659Z,8.47
2018-12-11T14:40:47.567Z,7.80
2018-12-11T14:43:15.757Z,7.80
2018-12-11T14:45:44.082Z,6.57
2018-12-11T14:48:12.387Z,7.37
2018-12-11T14:50:40.571Z,7.33
2018-12-11T14:53:08.943Z,9.23
2018-12-11T14:55:37.092Z,7.33
2018-12-11T14:58:05.402Z,7.10
2018-12-11T15:00:33.641Z,5.77
2018-12-11T15:03:02.581Z,9.83
2018-12-11T15:05:30.781Z,5.57
2018-12-11T15:07:59.046Z,8.97
2018-12-11T15:10:27.315Z,10.60
2018-12-11T15:12:56.073Z,7.97
2018-12-11T15:15:24.423Z,11.80
2018-12-11T15:17:52.610Z,8.90
2018-12-11T15:20:20.842Z,8.43
2018-12-11T15:22:49.353Z,9.43
2018-12-11T15:25:17.651Z,8.37
2018-12-11T15:27:45.863Z,7.40
2018-12-11T15:30:14.366Z,8.73
2018-12-11T15:32:42.591Z,8.33
2018-12-11T15:35:10.894Z,9.10
2018-12-11T15:37:39.128Z,6.10
2018-12-11T15:40:07.560Z,7.03
2018-12-11T15:42:35.907Z,8.00
2018-12-11T15:45:04.781Z,10.77
2018-12-11T15:47:33.089Z,8.33
2018-12-11T15:50:01.281Z,10.77
2018-12-11T15:52:29.500Z,9.67
2018-12-11T15:54:57.647Z,9.17
2018-12-11T15:57:25.839Z,7.57
2018-12-11T15:59:54.190Z,10.13
2018-12-11T16:02:22.381Z,9.27
2018-12-11T16:04:50.678Z,11.17
2018-12-11T16:07:18.939Z,9.17
2018-12-11T16:09:47.116Z,9.80
2018-12-11T16:12:15.354Z,14.33
2018-12-11T16:14:43.665Z,12.47
2018-12-11T16:17:11.930Z,8.37
2018-12-11T16:19:40.240Z,11.67
2018-12-11T16:22:08.447Z,14.40
2018-12-11T16:24:36.655Z,8.33
2018-12-11T16:27:05.039Z,8.77
2018-12-11T16:29:33.333Z,17.00
2018-12-11T16:32:02.667Z,16.10
2018-12-11T16:34:30.877Z,14.17
2018-12-11T16:36:59.123Z,13.70
2018-12-11T16:39:27.342Z,11.93
2018-12-11T16:41:56.488Z,13.37
2018-12-11T16:44:24.656Z,15.77
2018-12-11T16:46:52.808Z,11.43
2018-12-11T16:49:20.992Z,13.97
2018-12-11T16:51:49.216Z,10.13
2018-12-11T16:54:17.372Z,12.43
2018-12-11T16:56:45.531Z,12.43
2018-12-11T16:59:13.706Z,12.40
2018-12-11T17:01:42.665Z,14.65
2018-12-11T17:04:11.706Z,15.27
2018-12-11T17:06:39.976Z,12.77
2018-12-11T17:09:10.330Z,11.47
2018-12-11T17:11:38.537Z,12.17
2018-12-11T17:14:06.802Z,16.43
2018-12-11T17:16:34.984Z,12.90
2018-12-11T17:19:03.193Z,11.97
2018-12-11T17:21:31.450Z,16.60
2018-12-11T17:23:59.631Z,14.80
2018-12-11T17:26:27.964Z,15.77
2018-12-11T17:28:56.171Z,13.43
2018-12-11T17:31:24.439Z,11.10
2018-12-11T17:33:53.475Z,14.10
2018-12-11T17:36:21.744Z,14.23
2018-12-11T17:38:49.957Z,20.17
2018-12-11T17:41:18.702Z,15.50
2018-12-11T17:43:47.374Z,15.97
2018-12-11T17:46:16.454Z,16.47
2018-12-11T17:48:44.629Z,16.33
2018-12-11T17:51:13.190Z,13.73
2018-12-11T17:53:44.520Z,14.70
2018-12-11T17:56:13.170Z,15.07
2018-12-11T17:58:44.172Z,16.27
2018-12-11T18:01:13.188Z,15.13
2018-12-11T18:03:43.877Z,13.43
2018-12-11T18:06:12.558Z,15.20
2018-12-11T18:08:43.850Z,13.20
2018-12-11T18:11:18.036Z,19.70
2018-12-11T18:23:08.163Z,15.37
2018-12-11T18:25:38.322Z,14.03
2018-12-11T18:28:15.283Z,13.33
2018-12-11T18:30:46.284Z,11.97
2018-12-11T18:33:18.831Z,15.10
2018-12-11T18:35:48.353Z,14.37
2018-12-11T18:38:16.967Z,15.90
2018-12-11T18:40:45.472Z,15.57
2018-12-11T18:43:14.395Z,12.67
2018-12-11T18:45:42.916Z,17.83
2018-12-11T18:48:15.755Z,15.57
2018-12-11T18:50:57.274Z,18.57
2018-12-11T18:53:27.407Z,17.07
2018-12-11T18:55:58.142Z,16.57
2018-12-11T18:58:26.644Z,18.90
2018-12-11T19:00:57.727Z,16.50
2018-12-11T19:03:26.258Z,15.63
2018-12-11T19:05:54.853Z,20.67
2018-12-11T19:14:18.118Z,18.87
2018-12-11T19:16:54.828Z,21.37
2018-12-11T19:19:24.028Z,22.27
2018-12-11T19:21:57.411Z,19.80
2018-12-11T19:24:30.772Z,20.90
2018-12-11T19:40:28.615Z,21.13
2018-12-11T19:43:06.783Z,22.67
2018-12-11T19:45:39.489Z,28.37
2018-12-11T19:48:16.199Z,24.90
2018-12-11T19:50:45.737Z,22.07
2018-12-11T19:55:56.097Z,22.17
2018-12-11T19:58:27.720Z,27.40
2018-12-11T20:00:56.239Z,23.67
2018-12-11T20:03:25.352Z,30.33
2018-12-11T20:08:43.500Z,23.93
2018-12-11T20:11:12.570Z,23.63
2018-12-11T20:13:41.023Z,20.63
2018-12-11T20:16:09.464Z,23.77
2018-12-11T20:18:37.943Z,24.00
2018-12-11T20:21:06.339Z,24.63
2018-12-11T20:23:35.816Z,20.80
2018-12-11T20:26:04.460Z,22.80
2018-12-11T20:28:32.768Z,25.07
2018-12-11T20:31:12.143Z,22.27
2018-12-11T20:33:40.584Z,20.40
2018-12-11T20:36:10.798Z,25.83
2018-12-11T20:38:39.167Z,23.97
2018-12-11T20:41:07.528Z,24.60
2018-12-11T20:43:36.012Z,22.37
2018-12-11T20:46:04.516Z,24.97
2018-12-11T20:48:33.326Z,27.37
2018-12-11T20:51:02.004Z,26.93
2018-12-11T20:53:30.470Z,25.53
2018-12-11T20:56:04.663Z,25.30
2018-12-11T20:58:33.732Z,23.87
2018-12-11T21:01:02.083Z,24.87
2018-12-11T21:03:30.682Z,28.13
2018-12-11T21:06:00.096Z,27.27
2018-12-11T21:08:29.807Z,29.13
2018-12-11T21:10:59.819Z,29.07
2018-12-11T21:16:19.416Z,26.57
2018-12-11T21:18:48.077Z,29.60
2018-12-11T21:21:16.405Z,29.10
2018-12-11T21:23:44.773Z,26.83
2018-12-11T21:26:13.270Z,28.03
2018-12-11T21:28:44.516Z,26.73
2018-12-11T21:33:51.737Z,25.17
2018-12-11T21:36:20.222Z,27.83
2018-12-11T21:38:48.864Z,26.40
2018-12-11T21:41:26.834Z,29.70
2018-12-11T21:46:32.458Z,27.43
2018-12-11T21:49:00.714Z,22.77
2018-12-11T21:51:30.156Z,29.50
2018-12-11T21:53:58.697Z,26.43
2018-12-11T21:56:28.061Z,29.43
2018-12-11T21:58:56.669Z,23.20
2018-12-11T22:01:25.303Z,28.07
2018-12-11T22:03:56.327Z,26.20
2018-12-11T22:06:27.685Z,30.07
2018-12-11T22:08:55.999Z,29.30
2018-12-11T22:11:27.867Z,30.47
2018-12-11T22:13:57.466Z,28.67
2018-12-11T22:16:33.064Z,27.73
2018-12-11T22:19:01.801Z,28.87
2018-12-11T22:21:32.677Z,31.30
2018-12-11T22:24:22.113Z,28.03
2018-12-11T22:26:51.461Z,33.10
2018-12-11T22:29:19.670Z,27.47
2018-12-11T22:32:07.724Z,30.63
2018-12-11T22:34:38.873Z,28.80
2018-12-11T22:37:12.278Z,32.20
2018-12-11T22:42:31.636Z,29.57
2018-12-11T22:45:12.221Z,27.67
2018-12-11T22:47:42.750Z,31.70
2018-12-11T22:50:13.584Z,28.10
2018-12-11T22:52:42.268Z,29.57
2018-12-11T22:55:28.666Z,23.47
2018-12-11T22:57:58.438Z,29.17
2018-12-11T23:00:26.912Z,26.20
2018-12-11T23:02:55.205Z,32.97
2018-12-11T23:05:23.512Z,29.83
2018-12-11T23:07:52.618Z,27.37
2018-12-11T23:13:03.895Z,26.90
2018-12-11T23:15:32.837Z,33.77
2018-12-11T23:18:02.239Z,27.33
2018-12-11T23:21:25.180Z,23.10
2018-12-11T23:23:53.388Z,29.57
2018-12-11T23:29:07.370Z,25.17
2018-12-11T23:41:00.202Z,28.50
2018-12-11T23:45:08.584Z,28.23
2018-12-11T23:47:37.996Z,26.70
2018-12-11T23:52:48.964Z,27.37
2018-12-11T23:55:18.181Z,28.53
2018-12-11T23:57:46.822Z,28.30
